Time;durP1;ratioP1;P1;durP2;ratioP2;P2;SDS_P1;SDS_P2;PMS_P1;PMS_P2;Temp;Humidity;BMP_temperature;BMP_pressure;BME280_temperature;BME280_humidity;BME280_pressure;Samples;Min_cycle;Max_cycle;Signal;HPM_P1;HPM_P2
2021/10/16 00:02:04;;;;;;;12.25;4.57;;;7.80;99.90;;;;;;5070496;28;20020;-49
2021/10/16 00:04:29;;;;;;;20.67;4.72;;;7.80;99.90;;;;;;5070347;28;20124;-47
2021/10/16 00:06:55;;;;;;;19.42;4.50;;;7.80;99.90;;;;;;5069936;28;20077;-47
2021/10/16 00:09:20;;;;;;;12.73;4.65;;;7.80;99.90;;;;;;5069859;28;20091;-47
2021/10/16 00:11:46;;;;;;;18.65;4.80;;;7.90;99.90;;;;;;5070140;28;20035;-47
2021/10/16 00:14:12;;;;;;;14.13;4.90;;;7.90;99.90;;;;;;5068951;28;20037;-47
2021/10/16 00:16:37;;;;;;;17.40;4.80;;;7.90;99.90;;;;;;5051895;28;20033;-50
2021/10/16 00:19:05;;;;;;;10.70;3.75;;;8.00;99.90;;;;;;5069209;28;20029;-47
2021/10/16 00:21:30;;;;;;;14.50;4.03;;;8.00;99.90;;;;;;5069804;28;20055;-46
2021/10/16 00:23:56;;;;;;;16.88;5.60;;;8.00;99.90;;;;;;5069850;28;20600;-47
2021/10/16 00:26:23;;;;;;;16.58;4.03;;;7.90;99.90;;;;;;5068847;28;20040;-46
2021/10/16 00:28:48;;;;;;;15.15;5.40;;;8.00;99.90;;;;;;5068964;28;20486;-47
2021/10/16 00:31:14;;;;;;;17.65;4.63;;;7.90;99.90;;;;;;5069919;28;20046;-47
2021/10/16 00:33:39;;;;;;;15.05;4.60;;;8.00;99.90;;;;;;5069582;28;20028;-47
2021/10/16 00:36:04;;;;;;;18.45;4.75;;;7.90;99.90;;;;;;5069622;28;20064;-47
2021/10/16 00:38:30;;;;;;;12.10;4.03;;;7.90;99.90;;;;;;5068972;28;20491;-48
2021/10/16 00:40:55;;;;;;;18.98;5.70;;;7.80;99.90;;;;;;5069804;28;20079;-46
2021/10/16 00:43:21;;;;;;;18.15;4.50;;;7.80;99.90;;;;;;5069618;28;20028;-49
2021/10/16 00:45:46;;;;;;;21.63;4.78;;;7.80;99.90;;;;;;5069645;28;20115;-48
2021/10/16 00:48:12;;;;;;;13.93;4.25;;;7.70;99.90;;;;;;5068841;28;20036;-47
2021/10/16 00:50:37;;;;;;;14.18;3.75;;;7.70;99.90;;;;;;5069411;28;20079;-47
2021/10/16 00:53:03;;;;;;;13.95;3.75;;;7.60;99.90;;;;;;5051357;28;20390;-49
2021/10/16 00:55:29;;;;;;;21.05;5.38;;;7.60;99.90;;;;;;5069266;28;20512;-47
2021/10/16 00:57:58;;;;;;;13.60;4.50;;;7.60;99.90;;;;;;5068385;28;20028;-48
2021/10/16 01:00:24;;;;;;;17.58;4.25;;;7.60;99.90;;;;;;5068631;28;20245;-46
2021/10/16 01:02:50;;;;;;;14.25;3.85;;;7.60;99.90;;;;;;5068901;28;20037;-47
2021/10/16 01:05:15;;;;;;;15.95;4.00;;;7.60;99.90;;;;;;5069477;28;20429;-48
2021/10/16 01:07:41;;;;;;;16.55;3.55;;;7.60;99.90;;;;;;5068297;28;20047;-47
2021/10/16 01:10:08;;;;;;;14.40;5.10;;;7.70;99.90;;;;;;5068971;28;20033;-46
2021/10/16 01:12:36;;;;;;;15.88;4.88;;;7.60;99.90;;;;;;5068801;28;20494;-46
2021/10/16 01:15:04;;;;;;;22.58;4.25;;;7.70;99.90;;;;;;5049778;28;20082;-49
2021/10/16 01:17:35;;;;;;;20.08;4.65;;;7.60;99.90;;;;;;5067975;28;20259;-47
2021/10/16 01:20:13;;;;;;;15.70;3.83;;;7.60;99.90;;;;;;5051123;28;20437;-46
2021/10/16 01:22:40;;;;;;;19.17;3.92;;;7.60;99.90;;;;;;5069065;28;20025;-47
2021/10/16 01:25:15;;;;;;;15.60;3.75;;;7.70;99.90;;;;;;5068560;28;20039;-46
2021/10/16 01:27:41;;;;;;;20.67;5.28;;;7.70;99.90;;;;;;5067920;28;20044;-46
2021/10/16 01:30:09;;;;;;;15.82;4.13;;;7.70;99.90;;;;;;5068336;28;20059;-47
2021/10/16 01:32:36;;;;;;;15.70;4.22;;;7.70;99.90;;;;;;5068700;28;20036;-48
2021/10/16 01:35:03;;;;;;;17.50;4.28;;;7.70;99.90;;;;;;5068613;28;20043;-46
2021/10/16 01:37:29;;;;;;;11.23;4.00;;;7.70;99.90;;;;;;5067258;28;20032;-46
2021/10/16 01:39:54;;;;;;;21.63;4.75;;;7.70;99.90;;;;;;5068294;28;20724;-46
2021/10/16 01:42:20;;;;;;;12.10;4.00;;;7.70;99.90;;;;;;5050636;28;20455;-48
2021/10/16 01:44:45;;;;;;;21.73;6.20;;;7.70;99.90;;;;;;5061246;28;20040;-46
2021/10/16 01:47:11;;;;;;;12.10;3.92;;;7.70;99.90;;;;;;5066623;28;20052;-47
2021/10/16 01:49:37;;;;;;;14.80;4.00;;;7.70;99.90;;;;;;5067984;28;20134;-45
2021/10/16 01:52:03;;;;;;;19.25;4.00;;;7.70;99.90;;;;;;5067881;28;20072;-47
2021/10/16 01:54:29;;;;;;;16.08;4.88;;;7.70;99.90;;;;;;5067611;28;20036;-47
2021/10/16 01:56:55;;;;;;;12.02;4.05;;;7.70;99.90;;;;;;5049060;28;20040;-47
2021/10/16 01:59:25;;;;;;;13.25;4.18;;;7.70;99.90;;;;;;5066412;28;20474;-46
2021/10/16 02:01:53;;;;;;;13.00;4.07;;;7.70;99.90;;;;;;5049280;28;20386;-46
2021/10/16 02:04:19;;;;;;;13.35;3.78;;;7.60;99.90;;;;;;5066821;28;20498;-48
2021/10/16 02:06:44;;;;;;;17.60;3.92;;;7.60;99.90;;;;;;5067331;28;20079;-47
2021/10/16 02:09:10;;;;;;;11.82;3.75;;;7.60;99.90;;;;;;5067697;28;20502;-45
2021/10/16 02:11:36;;;;;;;21.45;3.72;;;7.60;99.90;;;;;;5068230;28;20230;-46
2021/10/16 02:14:03;;;;;;;20.95;4.85;;;7.60;99.90;;;;;;5049104;28;20032;-45
2021/10/16 02:16:29;;;;;;;10.05;3.97;;;7.70;99.90;;;;;;5067945;28;20356;-46
2021/10/16 02:18:56;;;;;;;11.30;3.92;;;7.60;99.90;;;;;;5049370;28;20056;-46
2021/10/16 02:21:23;;;;;;;22.60;4.13;;;7.70;99.90;;;;;;5067831;28;20028;-46
2021/10/16 02:23:49;;;;;;;10.32;3.85;;;7.60;99.90;;;;;;5067143;28;20448;-46
2021/10/16 02:26:15;;;;;;;18.05;4.03;;;7.60;99.90;;;;;;5067406;28;20042;-46
2021/10/16 02:28:40;;;;;;;13.15;3.67;;;7.70;99.90;;;;;;5067357;28;20037;-47
2021/10/16 02:31:06;;;;;;;22.00;4.25;;;7.60;99.90;;;;;;5068057;28;20402;-45
2021/10/16 02:33:31;;;;;;;13.07;4.50;;;7.60;99.90;;;;;;5068166;28;20291;-46
2021/10/16 02:35:57;;;;;;;20.10;4.38;;;7.60;99.90;;;;;;5067904;28;20117;-46
2021/10/16 02:38:23;;;;;;;15.75;4.55;;;7.60;99.90;;;;;;5067210;28;20028;-46
2021/10/16 02:40:48;;;;;;;19.08;4.03;;;7.50;99.90;;;;;;5067864;28;20044;-47
2021/10/16 02:43:14;;;;;;;14.93;4.65;;;7.50;99.90;;;;;;5065096;28;20037;-49
2021/10/16 02:45:39;;;;;;;14.38;4.80;;;7.50;99.90;;;;;;5065119;28;20348;-48
2021/10/16 02:48:06;;;;;;;20.42;5.75;;;7.50;99.90;;;;;;5067882;28;20349;-46
2021/10/16 02:50:32;;;;;;;19.63;4.28;;;7.50;99.90;;;;;;5071739;28;20024;-45
2021/10/16 02:52:57;;;;;;;21.00;4.13;;;7.50;99.90;;;;;;5071649;28;20043;-46
2021/10/16 02:55:22;;;;;;;17.27;4.07;;;7.60;99.90;;;;;;5053323;28;20029;-45
2021/10/16 02:57:48;;;;;;;15.45;3.45;;;7.60;99.90;;;;;;5052210;28;20490;-48
2021/10/16 03:00:14;;;;;;;14.95;3.47;;;7.50;99.90;;;;;;5070426;28;20061;-46
2021/10/16 03:02:39;;;;;;;21.13;3.72;;;7.60;99.90;;;;;;5071368;28;20375;-45
2021/10/16 03:05:06;;;;;;;13.90;3.95;;;7.60;99.90;;;;;;5071169;28;20031;-46
2021/10/16 03:07:31;;;;;;;15.00;3.90;;;7.50;99.90;;;;;;5070696;28;20101;-47
2021/10/16 03:09:57;;;;;;;17.77;3.90;;;7.50;99.90;;;;;;5070754;28;20143;-45
2021/10/16 03:12:23;;;;;;;23.65;4.53;;;7.50;99.90;;;;;;5053066;28;20025;-46
2021/10/16 03:14:48;;;;;;;22.67;4.95;;;7.40;99.90;;;;;;5069693;28;20094;-46
2021/10/16 03:17:14;;;;;;;20.08;5.22;;;7.50;99.90;;;;;;5070182;28;20031;-45
2021/10/16 03:19:39;;;;;;;14.63;3.63;;;7.40;99.90;;;;;;5052620;28;20028;-47
2021/10/16 03:22:05;;;;;;;14.48;3.85;;;7.40;99.90;;;;;;5070592;28;20111;-46
2021/10/16 03:24:31;;;;;;;13.52;3.42;;;7.40;99.90;;;;;;5070495;28;20465;-46
2021/10/16 03:26:57;;;;;;;14.50;4.05;;;7.40;99.90;;;;;;5070395;28;20071;-45
2021/10/16 03:29:22;;;;;;;20.33;4.53;;;7.50;99.90;;;;;;5070314;28;20048;-45
2021/10/16 03:31:48;;;;;;;31.33;5.78;;;7.40;99.90;;;;;;5070966;28;20394;-47
2021/10/16 03:34:13;;;;;;;10.68;3.63;;;7.50;99.90;;;;;;5070983;28;20101;-49
2021/10/16 03:36:39;;;;;;;16.90;4.03;;;7.50;99.90;;;;;;5071180;28;20526;-45
2021/10/16 03:39:05;;;;;;;16.58;3.53;;;7.50;99.90;;;;;;5070294;28;20059;-48
2021/10/16 03:41:30;;;;;;;16.40;4.60;;;7.50;99.90;;;;;;5070913;28;20100;-47
2021/10/16 03:43:56;;;;;;;14.77;3.60;;;7.60;99.90;;;;;;5066177;28;20071;-47
2021/10/16 03:46:21;;;;;;;17.33;4.68;;;7.60;99.90;;;;;;5070452;28;20029;-45
2021/10/16 03:48:47;;;;;;;20.80;4.07;;;7.60;99.90;;;;;;5070277;28;20385;-46
2021/10/16 03:51:12;;;;;;;18.42;4.03;;;7.60;99.90;;;;;;5070490;28;20043;-45
2021/10/16 03:53:38;;;;;;;21.35;5.20;;;7.60;99.90;;;;;;5070683;28;20047;-46
2021/10/16 03:56:04;;;;;;;11.35;3.47;;;7.70;99.90;;;;;;5070411;28;20029;-45
2021/10/16 03:58:30;;;;;;;15.50;3.65;;;7.60;99.90;;;;;;5069451;28;20070;-45
2021/10/16 04:01:00;;;;;;;15.93;4.50;;;7.70;99.90;;;;;;5070405;28;20279;-45
2021/10/16 04:03:26;;;;;;;14.88;3.75;;;7.70;99.90;;;;;;5070560;28;20102;-45
2021/10/16 04:05:51;;;;;;;17.75;4.38;;;7.70;99.90;;;;;;5070375;28;20028;-45
2021/10/16 04:08:16;;;;;;;11.70;3.53;;;7.60;99.90;;;;;;5069473;28;20036;-45
2021/10/16 04:10:42;;;;;;;13.30;3.60;;;7.70;99.90;;;;;;5070311;28;20367;-46
2021/10/16 04:13:08;;;;;;;14.98;3.40;;;7.70;99.90;;;;;;5069969;28;20040;-47
2021/10/16 04:15:33;;;;;;;11.38;4.38;;;7.70;99.90;;;;;;5066830;28;20445;-45
2021/10/16 04:17:59;;;;;;;20.70;3.35;;;7.70;99.90;;;;;;5069461;28;20060;-47
2021/10/16 04:20:24;;;;;;;17.60;3.80;;;7.60;99.90;;;;;;5069898;28;20101;-46
2021/10/16 04:22:50;;;;;;;12.98;3.67;;;7.60;99.90;;;;;;5069677;28;20032;-46
2021/10/16 04:25:15;;;;;;;14.90;3.33;;;7.60;99.90;;;;;;5069980;28;20032;-46
2021/10/16 04:27:43;;;;;;;26.67;4.95;;;7.60;99.90;;;;;;5069207;28;20040;-47
2021/10/16 04:30:09;;;;;;;14.85;4.05;;;7.60;99.90;;;;;;5069539;28;20029;-46
2021/10/16 04:32:35;;;;;;;22.15;4.90;;;7.60;99.90;;;;;;5069656;28;20043;-46
2021/10/16 04:35:02;;;;;;;17.10;4.10;;;7.60;99.90;;;;;;5070043;28;20035;-46
2021/10/16 04:37:28;;;;;;;16.20;4.05;;;7.60;99.90;;;;;;5069237;28;20474;-46
2021/10/16 04:39:53;;;;;;;17.02;4.95;;;7.60;99.90;;;;;;5069606;28;20035;-45
2021/10/16 04:42:19;;;;;;;15.68;4.32;;;7.60;99.90;;;;;;5051298;28;20078;-48
2021/10/16 04:44:44;;;;;;;11.45;3.10;;;7.60;99.90;;;;;;5068981;28;20036;-46
2021/10/16 04:47:10;;;;;;;21.73;4.85;;;7.50;99.90;;;;;;5068965;28;20036;-46
2021/10/16 04:49:36;;;;;;;12.95;3.75;;;7.50;99.90;;;;;;5070260;28;20044;-48
2021/10/16 04:52:04;;;;;;;10.68;3.88;;;7.50;99.90;;;;;;5069536;28;20033;-46
2021/10/16 04:54:30;;;;;;;12.60;3.63;;;7.50;99.90;;;;;;5069557;28;20029;-46
2021/10/16 04:56:56;;;;;;;16.17;4.13;;;7.50;99.90;;;;;;5069239;28;20067;-46
2021/10/16 04:59:21;;;;;;;12.00;3.85;;;7.50;99.90;;;;;;5068785;28;20046;-47
2021/10/16 05:01:46;;;;;;;20.25;4.15;;;7.40;99.90;;;;;;5051245;28;20059;-45
2021/10/16 05:04:12;;;;;;;15.82;3.90;;;7.40;99.90;;;;;;5069512;28;20271;-46
2021/10/16 05:06:37;;;;;;;12.75;4.35;;;7.40;99.90;;;;;;5068797;28;20383;-46
2021/10/16 05:09:03;;;;;;;16.73;4.63;;;7.30;99.90;;;;;;5068439;28;20185;-48
2021/10/16 05:11:29;;;;;;;14.15;3.78;;;7.30;99.90;;;;;;5068440;28;20086;-45
2021/10/16 05:13:54;;;;;;;11.90;4.15;;;7.40;99.90;;;;;;5068024;28;20360;-48
2021/10/16 05:16:20;;;;;;;16.58;4.55;;;7.30;99.90;;;;;;5068665;28;20032;-46
2021/10/16 05:18:46;;;;;;;14.35;4.72;;;7.40;99.90;;;;;;5068110;28;20095;-47
2021/10/16 05:21:13;;;;;;;11.20;4.20;;;7.40;99.90;;;;;;5068603;28;20055;-48
2021/10/16 05:23:38;;;;;;;19.90;4.43;;;7.40;99.90;;;;;;5068925;28;20094;-47
2021/10/16 05:26:04;;;;;;;17.65;3.90;;;7.40;99.90;;;;;;5050844;28;20036;-45
2021/10/16 05:28:30;;;;;;;23.98;5.70;;;7.40;99.90;;;;;;5068211;28;20116;-46
2021/10/16 05:30:55;;;;;;;23.75;5.55;;;7.40;99.90;;;;;;5068274;28;20448;-45
2021/10/16 05:33:21;;;;;;;12.43;3.88;;;7.40;99.90;;;;;;5068993;28;20553;-46
2021/10/16 05:35:46;;;;;;;16.45;4.53;;;7.40;99.90;;;;;;5068418;28;20119;-46
2021/10/16 05:38:12;;;;;;;10.90;4.25;;;7.40;99.90;;;;;;5068080;28;20075;-45
2021/10/16 05:40:39;;;;;;;14.98;3.70;;;7.40;99.90;;;;;;5068744;28;20490;-47
2021/10/16 05:43:04;;;;;;;10.60;3.58;;;7.40;99.90;;;;;;5068485;28;20437;-48
2021/10/16 05:45:30;;;;;;;17.05;3.90;;;7.40;99.90;;;;;;5068270;28;20109;-46
2021/10/16 05:47:55;;;;;;;16.67;4.30;;;7.40;99.90;;;;;;5068060;28;20107;-47
2021/10/16 05:50:20;;;;;;;16.33;4.10;;;7.40;99.90;;;;;;5068671;28;20028;-46
2021/10/16 05:52:47;;;;;;;19.90;4.10;;;7.40;99.90;;;;;;5069238;28;20033;-45
2021/10/16 05:55:12;;;;;;;15.10;4.20;;;7.40;99.90;;;;;;5068813;28;20090;-47
2021/10/16 05:57:38;;;;;;;18.80;3.97;;;7.40;99.90;;;;;;5068474;28;20032;-46
2021/10/16 06:00:05;;;;;;;12.02;3.88;;;7.40;99.90;;;;;;5068278;28;20072;-45
2021/10/16 06:02:30;;;;;;;21.30;5.10;;;7.40;99.90;;;;;;5068599;28;20029;-46
2021/10/16 06:04:56;;;;;;;12.82;3.05;;;7.30;99.90;;;;;;5068227;28;20044;-46
2021/10/16 06:07:22;;;;;;;20.10;4.68;;;7.40;99.90;;;;;;5067697;28;20040;-46
2021/10/16 06:09:47;;;;;;;9.77;3.20;;;7.30;99.90;;;;;;5067870;28;20032;-46
2021/10/16 06:12:12;;;;;;;13.55;3.20;;;7.30;99.90;;;;;;5066940;28;20048;-46
2021/10/16 06:14:38;;;;;;;12.65;4.57;;;7.30;99.90;;;;;;5047456;28;20051;-46
2021/10/16 06:17:03;;;;;;;9.90;3.72;;;7.30;99.90;;;;;;5072235;28;20032;-46
2021/10/16 06:19:29;;;;;;;22.52;4.70;;;7.30;99.90;;;;;;5064880;28;20429;-47
2021/10/16 06:21:55;;;;;;;19.25;4.18;;;7.30;99.90;;;;;;5071516;28;20070;-46
2021/10/16 06:24:21;;;;;;;16.60;3.42;;;7.40;99.90;;;;;;5066413;28;20120;-47
2021/10/16 06:26:46;;;;;;;12.35;3.60;;;7.40;99.90;;;;;;5074585;28;20190;-47
2021/10/16 06:29:12;;;;;;;13.73;3.88;;;7.50;99.90;;;;;;5071634;28;20044;-47
2021/10/16 06:31:37;;;;;;;13.02;3.83;;;7.50;99.90;;;;;;5076375;28;20380;-46
2021/10/16 06:34:03;;;;;;;9.90;2.83;;;7.50;99.90;;;;;;5074062;28;20033;-48
2021/10/16 06:36:28;;;;;;;13.98;4.68;;;7.50;99.90;;;;;;5071401;28;20032;-49
2021/10/16 06:38:54;;;;;;;19.85;3.67;;;7.60;99.90;;;;;;5070794;28;20036;-46
2021/10/16 06:41:19;;;;;;;14.70;3.00;;;7.60;99.90;;;;;;5071532;28;20029;-46
2021/10/16 06:43:45;;;;;;;15.82;3.90;;;7.70;99.90;;;;;;5052088;28;20661;-46
2021/10/16 06:46:11;;;;;;;20.08;5.05;;;7.70;99.90;;;;;;5071109;28;20227;-46
2021/10/16 06:48:36;;;;;;;18.40;4.55;;;7.80;99.90;;;;;;5071044;28;20064;-45
2021/10/16 06:51:02;;;;;;;14.52;3.90;;;7.80;99.90;;;;;;5071257;28;20029;-45
2021/10/16 06:53:28;;;;;;;16.60;3.03;;;7.90;99.90;;;;;;5071252;28;20028;-46
2021/10/16 06:55:53;;;;;;;14.85;3.83;;;7.90;99.90;;;;;;5052992;28;20052;-46
2021/10/16 06:58:19;;;;;;;14.55;4.07;;;7.90;99.90;;;;;;5070269;28;20036;-46
2021/10/16 07:00:44;;;;;;;12.73;3.08;;;8.00;99.90;;;;;;5070716;28;20075;-47
2021/10/16 07:03:14;;;;;;;13.38;3.80;;;8.00;99.90;;;;;;5052847;28;20059;-49
2021/10/16 07:05:41;;;;;;;12.18;3.65;;;7.90;99.90;;;;;;5070844;28;20024;-47
2021/10/16 07:08:07;;;;;;;19.58;4.13;;;8.00;99.90;;;;;;5052202;28;20264;-46
2021/10/16 07:10:32;;;;;;;14.85;3.58;;;7.90;99.90;;;;;;5070840;28;20581;-47
2021/10/16 07:13:03;;;;;;;14.88;3.45;;;7.90;99.90;;;;;;5052941;28;20449;-48
2021/10/16 07:15:29;;;;;;;11.05;3.65;;;7.90;99.90;;;;;;5069790;28;20024;-46
2021/10/16 07:17:54;;;;;;;15.02;4.25;;;8.00;99.90;;;;;;5069833;28;20086;-46
2021/10/16 07:20:20;;;;;;;12.13;3.28;;;8.20;99.90;;;;;;5071077;28;20098;-45
2021/10/16 07:22:45;;;;;;;17.45;4.68;;;8.30;99.90;;;;;;5070708;28;20478;-49
2021/10/16 07:25:11;;;;;;;7.90;2.53;;;8.50;99.90;;;;;;5070570;28;20274;-45
2021/10/16 07:27:37;;;;;;;10.80;3.28;;;8.70;99.90;;;;;;5052253;28;20040;-45
2021/10/16 07:30:03;;;;;;;9.10;3.42;;;8.80;99.90;;;;;;5052245;28;20225;-49
2021/10/16 07:32:28;;;;;;;10.15;2.72;;;8.90;99.90;;;;;;5070490;28;20040;-48
2021/10/16 07:34:54;;;;;;;15.07;3.45;;;9.00;99.90;;;;;;5070456;28;20035;-51
2021/10/16 07:37:19;;;;;;;15.48;3.15;;;9.10;99.90;;;;;;5069784;28;20028;-47
2021/10/16 07:39:45;;;;;;;8.70;2.97;;;9.20;99.90;;;;;;5070637;28;20028;-47
2021/10/16 07:42:11;;;;;;;10.82;3.25;;;9.20;99.90;;;;;;5070409;28;20028;-47
2021/10/16 07:44:36;;;;;;;14.10;3.75;;;9.40;99.90;;;;;;5070238;28;20028;-50
2021/10/16 07:47:02;;;;;;;19.10;3.65;;;9.50;99.90;;;;;;5069840;28;20470;-51
2021/10/16 07:49:27;;;;;;;10.57;3.30;;;9.70;99.90;;;;;;5070557;28;20036;-50
2021/10/16 07:51:53;;;;;;;10.35;3.42;;;9.80;99.90;;;;;;5070127;28;20109;-51
2021/10/16 07:54:18;;;;;;;11.43;3.75;;;9.90;99.90;;;;;;5070119;28;20465;-51
2021/10/16 07:56:44;;;;;;;8.43;2.95;;;9.80;99.90;;;;;;5051665;28;20504;-52
2021/10/16 07:59:10;;;;;;;10.05;3.22;;;9.80;99.90;;;;;;5068431;28;20293;-51
2021/10/16 08:01:35;;;;;;;11.88;3.80;;;9.90;99.90;;;;;;5040087;28;20106;-50
2021/10/16 08:04:01;;;;;;;15.82;3.85;;;9.80;99.90;;;;;;5066558;28;20051;-48
2021/10/16 08:06:27;;;;;;;11.13;3.28;;;9.70;99.90;;;;;;5035128;28;20032;-51
2021/10/16 08:08:52;;;;;;;8.85;2.63;;;9.50;99.90;;;;;;5069647;28;20302;-51
2021/10/16 08:11:18;;;;;;;12.23;3.55;;;9.40;99.90;;;;;;5069777;28;20444;-51
2021/10/16 08:13:43;;;;;;;15.95;3.80;;;9.60;99.90;;;;;;5068843;28;20090;-51
2021/10/16 08:16:09;;;;;;;16.92;4.25;;;9.70;99.90;;;;;;5068982;28;20036;-51
2021/10/16 08:18:35;;;;;;;8.43;3.05;;;9.80;99.90;;;;;;5068891;28;20032;-49
2021/10/16 08:21:00;;;;;;;10.60;3.13;;;9.80;99.90;;;;;;5069589;28;20094;-51
2021/10/16 08:23:26;;;;;;;13.20;3.45;;;10.00;99.90;;;;;;5068956;28;20398;-51
2021/10/16 08:25:51;;;;;;;13.63;4.20;;;10.10;99.90;;;;;;5069696;28;20154;-51
2021/10/16 08:28:17;;;;;;;10.73;3.45;;;10.30;99.90;;;;;;5068319;28;20494;-52
2021/10/16 08:30:50;;;;;;;11.32;3.45;;;10.40;99.90;;;;;;5068148;28;20475;-51
2021/10/16 08:33:19;;;;;;;12.00;3.78;;;10.50;99.90;;;;;;5066860;28;20123;-56
2021/10/16 08:35:45;;;;;;;12.25;3.40;;;10.60;99.90;;;;;;5069137;28;20079;-53
2021/10/16 08:38:10;;;;;;;9.63;2.92;;;10.70;99.90;;;;;;5068598;28;20157;-52
2021/10/16 08:40:37;;;;;;;19.58;3.60;;;10.80;99.90;;;;;;5068834;28;20028;-52
2021/10/16 08:43:03;;;;;;;13.27;3.42;;;10.80;99.90;;;;;;5068732;28;20055;-52
2021/10/16 08:45:29;;;;;;;15.57;3.60;;;10.90;99.90;;;;;;5066801;28;20471;-52
2021/10/16 08:47:54;;;;;;;13.63;3.28;;;11.00;99.90;;;;;;5067784;28;20036;-51
2021/10/16 08:50:21;;;;;;;15.82;3.10;;;11.20;99.90;;;;;;5068550;28;20059;-51
2021/10/16 08:52:46;;;;;;;7.28;2.92;;;11.40;99.90;;;;;;5050212;28;20532;-51
2021/10/16 08:55:13;;;;;;;11.35;3.28;;;11.90;99.90;;;;;;5069079;28;20040;-52
2021/10/16 08:57:41;;;;;;;10.13;2.53;;;13.10;99.90;;;;;;5068452;28;20031;-53
2021/10/16 09:00:35;;;;;;;8.52;2.42;;;14.80;99.90;;;;;;5050787;28;20051;-53
2021/10/16 09:03:13;;;;;;;13.85;3.17;;;15.40;99.90;;;;;;5069277;28;20141;-53
2021/10/16 09:05:39;;;;;;;6.35;2.70;;;15.10;99.90;;;;;;5069431;28;20045;-53
2021/10/16 09:08:04;;;;;;;10.98;3.25;;;15.30;99.90;;;;;;5068672;28;20041;-53
2021/10/16 09:10:30;;;;;;;9.55;3.20;;;16.30;99.90;;;;;;5069030;28;20040;-54
2021/10/16 09:12:57;;;;;;;9.23;2.70;;;16.70;99.20;;;;;;5069219;28;20036;-53
2021/10/16 09:15:23;;;;;;;10.38;3.38;;;16.20;99.30;;;;;;5068197;28;20028;-52
2021/10/16 09:18:06;;;;;;;8.43;3.10;;;15.60;99.90;;;;;;5050359;28;20501;-53
2021/10/16 09:20:36;;;;;;;13.45;3.17;;;15.50;99.90;;;;;;5068941;28;20029;-54
2021/10/16 09:23:04;;;;;;;11.70;3.28;;;15.90;99.30;;;;;;5069178;28;20037;-54
2021/10/16 09:25:29;;;;;;;10.10;3.15;;;16.50;99.60;;;;;;5069148;28;20044;-54
2021/10/16 09:28:15;;;;;;;10.68;3.25;;;17.40;99.10;;;;;;5068092;28;20044;-54
2021/10/16 09:30:45;;;;;;;12.38;2.90;;;18.00;96.80;;;;;;5068525;28;20123;-54
2021/10/16 09:33:11;;;;;;;11.98;4.18;;;18.50;93.90;;;;;;5068458;28;20116;-53
2021/10/16 09:35:36;;;;;;;9.20;2.80;;;19.40;92.60;;;;;;5068522;28;20468;-54
2021/10/16 09:40:41;;;;;;;7.57;2.80;;;20.00;90.60;;;;;;5086099;28;20442;-53
2021/10/16 09:43:21;;;;;;;8.07;2.72;;;19.00;90.10;;;;;;5084872;28;20482;-53
2021/10/16 09:45:46;;;;;;;7.63;3.05;;;18.60;89.90;;;;;;5094024;28;20031;-53
2021/10/16 09:48:33;;;;;;;10.50;3.30;;;18.50;91.10;;;;;;5099453;28;20400;-53
2021/10/16 09:51:00;;;;;;;10.55;2.85;;;19.30;91.30;;;;;;5106357;28;20019;-53
2021/10/16 09:53:26;;;;;;;9.57;3.60;;;20.70;88.10;;;;;;5106122;28;20039;-53
2021/10/16 09:55:53;;;;;;;9.68;2.50;;;20.00;84.40;;;;;;5106327;28;20027;-53
2021/10/16 09:58:21;;;;;;;11.93;2.97;;;19.70;83.80;;;;;;5105242;28;20559;-53
2021/10/16 10:00:46;;;;;;;10.70;3.20;;;18.80;88.00;;;;;;5105899;28;20034;-53
2021/10/16 10:03:13;;;;;;;10.95;3.10;;;18.10;90.30;;;;;;5102547;28;20497;-52
2021/10/16 10:05:41;;;;;;;7.40;3.08;;;17.70;90.10;;;;;;5085533;28;20447;-53
2021/10/16 10:08:06;;;;;;;12.82;3.45;;;17.00;91.80;;;;;;5084749;28;20078;-52
2021/10/16 10:10:32;;;;;;;9.90;3.45;;;16.30;93.10;;;;;;5085383;28;20032;-52
2021/10/16 10:12:58;;;;;;;14.13;3.03;;;15.40;95.60;;;;;;5085276;28;20428;-52
2021/10/16 10:15:24;;;;;;;8.68;2.90;;;14.80;96.70;;;;;;5089411;28;20026;-52
2021/10/16 10:17:50;;;;;;;12.98;3.35;;;14.50;98.90;;;;;;5092926;28;20021;-52
2021/10/16 10:20:16;;;;;;;8.40;3.35;;;14.30;99.00;;;;;;5085200;28;20509;-51
2021/10/16 10:22:44;;;;;;;16.10;3.90;;;13.90;99.60;;;;;;5085333;28;20035;-52
2021/10/16 10:25:25;;;;;;;10.68;3.05;;;13.50;99.90;;;;;;5085175;28;20029;-52
2021/10/16 10:27:52;;;;;;;9.63;3.00;;;13.40;99.90;;;;;;5084698;28;20116;-52
2021/10/16 10:30:36;;;;;;;11.07;2.88;;;13.30;99.90;;;;;;5085214;28;20048;-51
2021/10/16 10:33:19;;;;;;;13.88;2.78;;;13.10;99.90;;;;;;5085479;28;20103;-52
2021/10/16 10:36:17;;;;;;;10.70;3.38;;;13.20;99.90;;;;;;5083857;28;20016;-52
2021/10/16 10:38:43;;;;;;;10.40;2.92;;;13.40;99.90;;;;;;5084073;28;20055;-52
2021/10/16 10:41:23;;;;;;;6.80;2.83;;;13.50;99.90;;;;;;5084948;28;20024;-51
2021/10/16 10:43:52;;;;;;;12.82;3.63;;;13.40;99.90;;;;;;5085132;28;20024;-51
2021/10/16 10:46:22;;;;;;;12.85;3.80;;;13.50;99.90;;;;;;5086189;28;20043;-52
2021/10/16 10:48:48;;;;;;;9.35;2.55;;;13.80;99.90;;;;;;5103175;28;20016;-51
2021/10/16 10:51:38;;;;;;;10.27;2.90;;;13.90;99.90;;;;;;5093998;28;20024;-52
2021/10/16 10:54:11;;;;;;;9.13;2.35;;;14.00;99.90;;;;;;5090166;28;20039;-52
2021/10/16 10:56:38;;;;;;;6.90;2.33;;;14.50;99.90;;;;;;5091246;28;20039;-51
2021/10/16 10:59:08;;;;;;;10.30;2.50;;;14.70;99.90;;;;;;5090608;28;20031;-52
2021/10/16 11:01:50;;;;;;;8.60;2.40;;;14.90;99.90;;;;;;5091137;28;20016;-52
2021/10/16 11:04:32;;;;;;;10.40;2.38;;;14.90;99.70;;;;;;5091308;28;20024;-52
2021/10/16 11:07:00;;;;;;;7.95;2.20;;;14.80;99.70;;;;;;5091248;28;20035;-52
2021/10/16 11:09:26;;;;;;;5.13;1.98;;;14.50;99.90;;;;;;5091297;28;20020;-51
2021/10/16 11:11:51;;;;;;;4.72;2.42;;;14.50;99.90;;;;;;5091046;28;20119;-52
2021/10/16 11:14:17;;;;;;;8.93;3.08;;;14.50;99.90;;;;;;5086497;28;20494;-52
2021/10/16 11:16:58;;;;;;;5.28;2.10;;;14.40;99.90;;;;;;5080558;28;20428;-52
2021/10/16 11:19:24;;;;;;;5.60;2.03;;;14.50;99.90;;;;;;5090326;28;20528;-52
2021/10/16 11:21:51;;;;;;;9.52;2.45;;;14.60;99.90;;;;;;5090984;28;20130;-51
2021/10/16 11:24:18;;;;;;;11.40;2.08;;;14.50;99.90;;;;;;5090843;28;20493;-52
2021/10/16 11:26:58;;;;;;;5.10;2.10;;;14.20;99.90;;;;;;5090605;28;20089;-51
2021/10/16 11:29:27;;;;;;;15.00;2.80;;;14.40;99.90;;;;;;5088644;28;20044;-51
2021/10/16 11:32:17;;;;;;;10.77;2.47;;;14.30;99.90;;;;;;5090493;28;20024;-52
2021/10/16 11:35:07;;;;;;;8.70;2.53;;;14.30;99.90;;;;;;5090778;28;20507;-52
2021/10/16 11:37:35;;;;;;;12.82;2.58;;;14.20;99.90;;;;;;5090059;28;20488;-52
2021/10/16 11:40:04;;;;;;;9.57;2.40;;;14.30;99.90;;;;;;5090720;28;20032;-51
2021/10/16 11:42:30;;;;;;;9.52;2.40;;;14.20;99.90;;;;;;5090611;28;20028;-52
2021/10/16 11:44:55;;;;;;;5.50;1.90;;;14.30;99.90;;;;;;5083584;28;20023;-51
2021/10/16 11:47:21;;;;;;;7.35;2.10;;;14.50;99.90;;;;;;5081553;28;20028;-52
2021/10/16 11:49:46;;;;;;;11.10;2.63;;;14.60;99.90;;;;;;5090576;28;20032;-52
2021/10/16 11:52:22;;;;;;;6.30;2.03;;;14.60;99.90;;;;;;5090428;28;20028;-52
2021/10/16 11:54:48;;;;;;;5.72;2.15;;;14.50;99.90;;;;;;5089127;28;20432;-52
2021/10/16 11:57:25;;;;;;;7.53;2.20;;;14.40;99.90;;;;;;5089453;28;20036;-52
2021/10/16 11:59:51;;;;;;;7.95;2.63;;;14.30;99.90;;;;;;5089829;28;20024;-52
2021/10/16 12:02:34;;;;;;;7.53;2.33;;;14.20;99.90;;;;;;5088953;28;20023;-52
2021/10/16 12:05:10;;;;;;;7.03;2.03;;;14.10;99.90;;;;;;5090516;28;20024;-52
2021/10/16 12:07:36;;;;;;;9.95;2.03;;;14.30;99.90;;;;;;5089252;28;20107;-52
2021/10/16 12:10:29;;;;;;;5.93;1.83;;;14.30;99.90;;;;;;5090202;28;20099;-51
2021/10/16 12:13:06;;;;;;;4.90;1.60;;;14.40;99.50;;;;;;5086459;28;20038;-52
2021/10/16 12:15:35;;;;;;;8.98;2.00;;;14.30;99.70;;;;;;5083910;28;20078;-52
2021/10/16 12:18:02;;;;;;;11.80;2.10;;;14.30;99.20;;;;;;5080835;28;20034;-51
2021/10/16 12:20:28;;;;;;;6.22;2.15;;;14.10;99.30;;;;;;5089707;28;20261;-51
2021/10/16 12:22:58;;;;;;;4.55;1.80;;;14.10;99.90;;;;;;5089809;28;20040;-51
2021/10/16 12:25:24;;;;;;;11.23;2.00;;;14.00;99.90;;;;;;5088441;28;20024;-51
2021/10/16 12:28:03;;;;;;;4.60;1.90;;;14.10;99.90;;;;;;5089054;28;20131;-52
2021/10/16 12:30:29;;;;;;;7.13;1.80;;;14.10;99.90;;;;;;5089507;28;20030;-51
2021/10/16 12:33:11;;;;;;;4.75;1.60;;;14.20;99.20;;;;;;5089520;28;20113;-52
2021/10/16 12:35:36;;;;;;;6.78;1.75;;;14.30;99.20;;;;;;5089823;28;20024;-51
2021/10/16 12:38:02;;;;;;;7.38;1.85;;;14.40;99.50;;;;;;5088808;28;20034;-52
2021/10/16 12:40:39;;;;;;;6.25;1.58;;;14.40;99.10;;;;;;5089676;28;20047;-52
2021/10/16 12:43:06;;;;;;;4.55;1.60;;;14.30;99.50;;;;;;5089685;28;20443;-52
2021/10/16 12:45:40;;;;;;;6.88;2.08;;;14.10;99.40;;;;;;5084987;28;20028;-51
2021/10/16 12:48:35;;;;;;;4.53;1.50;;;13.70;98.80;;;;;;5074408;28;20462;-51
2021/10/16 12:51:02;;;;;;;8.20;1.80;;;13.60;99.90;;;;;;5088133;28;20020;-51